Gambrills, Maryland
Current Conditions -  °F | °C
As of 6:27 AM on Thursday 18 Dec 2014 (Local Time) from KFME Reporting Station
Clear Clear  
Wind Chill: 27°   Ceiling: Unl
Heat Index: 32°   Visibility: 10mi
Dew Point: 19°   Wind: 5mph
Humidity: 60%   Direction: 310°NW
Pressure: 30.16"   Gusts: NA
Location:  39.07°N, 76.66°W
Report Text: KFME 181127Z AUTO 31004KT 10SM CLR 00/M07 A3016 RMK AO1
Loading
Personal Weather Stations






























Interactive Weather Map New forecast layout! Learn more

10-Day Weather Forecast

Advertisements
Track Severe Weather on mobile